sensor_id;sensor_type;location;lat;lon;timestamp;pressure;altitude;pressure_sealevel;temperature;humidity
22257;BME280;11297;42.686;23.374;2022-08-06T00:02:28;94834.84;;;26.38;43.58
22257;BME280;11297;42.686;23.374;2022-08-06T00:04:55;94839.38;;;26.11;44.42
22257;BME280;11297;42.686;23.374;2022-08-06T00:07:21;94840.56;;;25.80;44.14
22257;BME280;11297;42.686;23.374;2022-08-06T00:09:46;94840.78;;;25.59;44.94
22257;BME280;11297;42.686;23.374;2022-08-06T00:12:12;94844.94;;;25.60;46.04
22257;BME280;11297;42.686;23.374;2022-08-06T00:14:37;94846.59;;;25.48;45.51
22257;BME280;11297;42.686;23.374;2022-08-06T00:17:03;94845.25;;;25.33;45.95
22257;BME280;11297;42.686;23.374;2022-08-06T00:19:28;94847.63;;;25.24;46.03
22257;BME280;11297;42.686;23.374;2022-08-06T00:21:54;94850.72;;;25.19;46.10
22257;BME280;11297;42.686;23.374;2022-08-06T00:24:19;94849.25;;;25.14;46.19
22257;BME280;11297;42.686;23.374;2022-08-06T00:26:45;94849.16;;;25.21;46.42
22257;BME280;11297;42.686;23.374;2022-08-06T00:29:11;94848.34;;;25.28;45.89
22257;BME280;11297;42.686;23.374;2022-08-06T00:31:37;94847.16;;;25.32;48.41
22257;BME280;11297;42.686;23.374;2022-08-06T00:34:02;94851.94;;;25.48;48.96
22257;BME280;11297;42.686;23.374;2022-08-06T00:36:31;94847.16;;;25.69;46.79
22257;BME280;11297;42.686;23.374;2022-08-06T00:38:59;94849.69;;;25.79;44.79
22257;BME280;11297;42.686;23.374;2022-08-06T00:41:24;94853.03;;;25.87;45.06
22257;BME280;11297;42.686;23.374;2022-08-06T00:43:51;94848.22;;;25.75;44.87
22257;BME280;11297;42.686;23.374;2022-08-06T00:46:16;94849.91;;;25.58;45.74
22257;BME280;11297;42.686;23.374;2022-08-06T00:48:42;94852.91;;;25.60;48.40
22257;BME280;11297;42.686;23.374;2022-08-06T00:51:08;94849.03;;;25.72;49.21
22257;BME280;11297;42.686;23.374;2022-08-06T00:53:33;94849.97;;;25.88;47.44
22257;BME280;11297;42.686;23.374;2022-08-06T00:56:01;94852.81;;;26.04;45.28
22257;BME280;11297;42.686;23.374;2022-08-06T00:58:27;94854.22;;;26.12;44.22
22257;BME280;11297;42.686;23.374;2022-08-06T01:00:52;94863.22;;;26.21;45.38
22257;BME280;11297;42.686;23.374;2022-08-06T01:03:18;94854.72;;;26.33;44.59
22257;BME280;11297;42.686;23.374;2022-08-06T01:05:43;94850.03;;;26.41;44.07
22257;BME280;11297;42.686;23.374;2022-08-06T01:08:10;94854.94;;;26.46;44.00
22257;BME280;11297;42.686;23.374;2022-08-06T01:10:36;94852.53;;;26.54;43.87
22257;BME280;11297;42.686;23.374;2022-08-06T01:13:01;94843.22;;;26.40;43.39
22257;BME280;11297;42.686;23.374;2022-08-06T01:15:26;94849.78;;;26.32;43.66
22257;BME280;11297;42.686;23.374;2022-08-06T01:18:14;94847.25;;;26.21;46.53
22257;BME280;11297;42.686;23.374;2022-08-06T01:28:28;94844.16;;;25.67;45.73
22257;BME280;11297;42.686;23.374;2022-08-06T01:31:06;94842.50;;;25.76;46.02
22257;BME280;11297;42.686;23.374;2022-08-06T01:33:40;94847.69;;;25.87;48.70
22257;BME280;11297;42.686;23.374;2022-08-06T01:36:09;94841.44;;;26.00;48.20
22257;BME280;11297;42.686;23.374;2022-08-06T01:38:41;94839.03;;;26.09;47.63
22257;BME280;11297;42.686;23.374;2022-08-06T01:41:10;94839.56;;;26.27;47.41
22257;BME280;11297;42.686;23.374;2022-08-06T01:43:37;94835.63;;;26.38;47.65
22257;BME280;11297;42.686;23.374;2022-08-06T01:46:05;94832.09;;;26.45;45.80
22257;BME280;11297;42.686;23.374;2022-08-06T01:48:36;94842.25;;;26.53;44.94
22257;BME280;11297;42.686;23.374;2022-08-06T01:51:04;94840.84;;;26.45;45.17
22257;BME280;11297;42.686;23.374;2022-08-06T01:53:36;94834.84;;;26.38;46.50
22257;BME280;11297;42.686;23.374;2022-08-06T01:56:06;94833.78;;;26.35;46.40
22257;BME280;11297;42.686;23.374;2022-08-06T01:58:37;94834.97;;;26.27;46.51
22257;BME280;11297;42.686;23.374;2022-08-06T02:01:06;94827.84;;;26.21;45.89
22257;BME280;11297;42.686;23.374;2022-08-06T02:03:37;94836.69;;;26.14;47.52
22257;BME280;11297;42.686;23.374;2022-08-06T02:06:05;94830.59;;;26.14;46.60
22257;BME280;11297;42.686;23.374;2022-08-06T02:08:33;94832.59;;;26.06;47.60
22257;BME280;11297;42.686;23.374;2022-08-06T02:11:00;94818.63;;;25.99;46.13
22257;BME280;11297;42.686;23.374;2022-08-06T02:13:30;94819.47;;;25.93;46.76
22257;BME280;11297;42.686;23.374;2022-08-06T02:15:59;94817.22;;;25.91;46.76
22257;BME280;11297;42.686;23.374;2022-08-06T02:18:29;94815.69;;;25.90;47.20
22257;BME280;11297;42.686;23.374;2022-08-06T02:20:57;94818.75;;;25.89;47.14
22257;BME280;11297;42.686;23.374;2022-08-06T02:23:26;94813.47;;;25.85;46.36
22257;BME280;11297;42.686;23.374;2022-08-06T02:25:53;94817.41;;;25.77;46.42
22257;BME280;11297;42.686;23.374;2022-08-06T02:28:22;94816.72;;;25.70;46.79
22257;BME280;11297;42.686;23.374;2022-08-06T02:30:51;94810.69;;;25.62;47.20
22257;BME280;11297;42.686;23.374;2022-08-06T02:33:17;94817.34;;;25.48;48.11
22257;BME280;11297;42.686;23.374;2022-08-06T02:36:20;94815.19;;;25.36;48.59
22257;BME280;11297;42.686;23.374;2022-08-06T02:38:55;94812.97;;;25.31;48.59
22257;BME280;11297;42.686;23.374;2022-08-06T02:41:42;94816.03;;;25.26;47.95
22257;BME280;11297;42.686;23.374;2022-08-06T02:45:03;94813.09;;;25.20;48.42
22257;BME280;11297;42.686;23.374;2022-08-06T02:47:06;94818.00;;;25.22;48.28
22257;BME280;11297;42.686;23.374;2022-08-06T02:49:36;94819.59;;;25.16;49.27
22257;BME280;11297;42.686;23.374;2022-08-06T02:52:16;94821.91;;;25.10;49.21
22257;BME280;11297;42.686;23.374;2022-08-06T02:54:48;94813.16;;;25.13;49.55
22257;BME280;11297;42.686;23.374;2022-08-06T02:57:23;94821.16;;;25.10;50.13
22257;BME280;11297;42.686;23.374;2022-08-06T02:59:54;94823.81;;;25.10;49.36
22257;BME280;11297;42.686;23.374;2022-08-06T03:02:22;94825.41;;;25.04;48.79
22257;BME280;11297;42.686;23.374;2022-08-06T03:04:49;94832.25;;;25.02;48.53
22257;BME280;11297;42.686;23.374;2022-08-06T03:07:17;94836.81;;;25.01;48.28
22257;BME280;11297;42.686;23.374;2022-08-06T03:09:47;94835.66;;;25.05;48.32
22257;BME280;11297;42.686;23.374;2022-08-06T03:12:15;94826.16;;;24.98;48.19
22257;BME280;11297;42.686;23.374;2022-08-06T03:14:42;94836.50;;;24.92;49.01
22257;BME280;11297;42.686;23.374;2022-08-06T03:17:11;94833.53;;;24.83;49.30
22257;BME280;11297;42.686;23.374;2022-08-06T03:19:39;94839.56;;;24.87;49.35
22257;BME280;11297;42.686;23.374;2022-08-06T03:22:08;94834.66;;;24.82;49.19
22257;BME280;11297;42.686;23.374;2022-08-06T03:24:35;94839.56;;;24.87;48.85
22257;BME280;11297;42.686;23.374;2022-08-06T03:27:03;94847.88;;;24.93;51.31
22257;BME280;11297;42.686;23.374;2022-08-06T03:29:30;94839.13;;;24.96;49.61
22257;BME280;11297;42.686;23.374;2022-08-06T03:31:58;94837.91;;;25.03;48.69
22257;BME280;11297;42.686;23.374;2022-08-06T03:34:24;94837.19;;;25.03;48.94
22257;BME280;11297;42.686;23.374;2022-08-06T03:36:51;94833.78;;;25.02;48.88
22257;BME280;11297;42.686;23.374;2022-08-06T03:39:18;94838.66;;;25.07;50.67
22257;BME280;11297;42.686;23.374;2022-08-06T03:41:44;94838.63;;;25.11;49.19
22257;BME280;11297;42.686;23.374;2022-08-06T03:44:11;94835.91;;;25.18;48.24
22257;BME280;11297;42.686;23.374;2022-08-06T03:47:13;94830.81;;;25.30;50.51
22257;BME280;11297;42.686;23.374;2022-08-06T03:49:46;94833.03;;;25.39;50.09
22257;BME280;11297;42.686;23.374;2022-08-06T03:52:17;94837.06;;;25.50;51.83
22257;BME280;11297;42.686;23.374;2022-08-06T03:54:47;94841.75;;;25.76;50.22
22257;BME280;11297;42.686;23.374;2022-08-06T03:57:17;94845.69;;;25.94;50.12
22257;BME280;11297;42.686;23.374;2022-08-06T03:59:44;94831.91;;;26.02;48.99
22257;BME280;11297;42.686;23.374;2022-08-06T04:02:12;94845.38;;;26.18;47.91
22257;BME280;11297;42.686;23.374;2022-08-06T04:04:39;94843.25;;;26.36;48.13
22257;BME280;11297;42.686;23.374;2022-08-06T04:07:06;94843.06;;;26.50;47.98
22257;BME280;11297;42.686;23.374;2022-08-06T04:09:33;94843.25;;;26.62;48.04
22257;BME280;11297;42.686;23.374;2022-08-06T04:12:00;94858.53;;;26.85;47.81
22257;BME280;11297;42.686;23.374;2022-08-06T04:14:27;94851.66;;;26.84;47.35
22257;BME280;11297;42.686;23.374;2022-08-06T04:16:53;94854.25;;;26.91;45.26
22257;BME280;11297;42.686;23.374;2022-08-06T04:19:20;94854.22;;;26.42;44.49
22257;BME280;11297;42.686;23.374;2022-08-06T04:21:47;94860.44;;;26.32;46.70
22257;BME280;11297;42.686;23.374;2022-08-06T04:24:13;94862.81;;;26.23;46.43
22257;BME280;11297;42.686;23.374;2022-08-06T04:26:40;94856.44;;;26.17;45.81
22257;BME280;11297;42.686;23.374;2022-08-06T04:29:09;94859.28;;;25.73;47.35
22257;BME280;11297;42.686;23.374;2022-08-06T04:31:37;94861.91;;;25.37;47.11
22257;BME280;11297;42.686;23.374;2022-08-06T04:34:03;94866.19;;;25.27;49.94
22257;BME280;11297;42.686;23.374;2022-08-06T04:36:29;94865.38;;;25.34;48.88
22257;BME280;11297;42.686;23.374;2022-08-06T04:38:56;94873.97;;;25.48;49.23
22257;BME280;11297;42.686;23.374;2022-08-06T04:41:21;94871.19;;;25.58;50.62
22257;BME280;11297;42.686;23.374;2022-08-06T04:43:48;94877.44;;;25.82;48.88
22257;BME280;11297;42.686;23.374;2022-08-06T04:46:15;94877.19;;;26.02;48.20
22257;BME280;11297;42.686;23.374;2022-08-06T04:48:41;94876.28;;;25.46;48.72
22257;BME280;11297;42.686;23.374;2022-08-06T04:51:07;94874.97;;;25.64;49.12
22257;BME280;11297;42.686;23.374;2022-08-06T04:53:38;94872.72;;;25.59;47.94
22257;BME280;11297;42.686;23.374;2022-08-06T04:56:05;94874.88;;;25.35;48.12
22257;BME280;11297;42.686;23.374;2022-08-06T04:58:31;94877.63;;;25.61;48.98
22257;BME280;11297;42.686;23.374;2022-08-06T05:00:56;94887.25;;;25.11;49.64
22257;BME280;11297;42.686;23.374;2022-08-06T05:03:22;94894.16;;;25.02;50.22
22257;BME280;11297;42.686;23.374;2022-08-06T05:08:56;94879.19;;;25.22;50.59
22257;BME280;11297;42.686;23.374;2022-08-06T05:11:31;94880.81;;;25.46;49.25
22257;BME280;11297;42.686;23.374;2022-08-06T05:14:05;94890.28;;;25.50;49.41
22257;BME280;11297;42.686;23.374;2022-08-06T05:16:36;94880.63;;;25.66;49.03
22257;BME280;11297;42.686;23.374;2022-08-06T05:19:08;94888.06;;;26.15;49.60
22257;BME280;11297;42.686;23.374;2022-08-06T05:21:36;94890.00;;;26.11;49.42
22257;BME280;11297;42.686;23.374;2022-08-06T05:24:03;94890.41;;;26.09;47.51
22257;BME280;11297;42.686;23.374;2022-08-06T05:26:29;94891.59;;;26.05;47.36
22257;BME280;11297;42.686;23.374;2022-08-06T05:28:54;94888.47;;;26.13;47.07
22257;BME280;11297;42.686;23.374;2022-08-06T05:31:35;94890.13;;;26.00;47.19
22257;BME280;11297;42.686;23.374;2022-08-06T05:34:02;94888.06;;;26.15;47.14
22257;BME280;11297;42.686;23.374;2022-08-06T05:36:28;94890.81;;;26.38;48.22
22257;BME280;11297;42.686;23.374;2022-08-06T05:38:54;94892.38;;;26.61;46.78
22257;BME280;11297;42.686;23.374;2022-08-06T05:41:19;94887.31;;;26.44;46.16
22257;BME280;11297;42.686;23.374;2022-08-06T05:43:45;94892.19;;;26.75;46.74
22257;BME280;11297;42.686;23.374;2022-08-06T05:46:16;94894.81;;;27.05;46.57
22257;BME280;11297;42.686;23.374;2022-08-06T05:48:54;94886.50;;;27.22;46.05
22257;BME280;11297;42.686;23.374;2022-08-06T05:51:35;94879.72;;;27.41;46.65
22257;BME280;11297;42.686;23.374;2022-08-06T05:54:13;94877.84;;;27.60;45.22
22257;BME280;11297;42.686;23.374;2022-08-06T05:56:43;94878.34;;;27.75;45.67
22257;BME280;11297;42.686;23.374;2022-08-06T05:59:19;94869.72;;;27.67;44.99
22257;BME280;11297;42.686;23.374;2022-08-06T06:01:47;94879.81;;;27.56;45.88
22257;BME280;11297;42.686;23.374;2022-08-06T06:04:14;94881.47;;;27.70;44.37
22257;BME280;11297;42.686;23.374;2022-08-06T06:06:40;94874.97;;;27.71;43.97
22257;BME280;11297;42.686;23.374;2022-08-06T06:09:06;94875.81;;;27.87;43.89
22257;BME280;11297;42.686;23.374;2022-08-06T06:11:32;94880.03;;;28.04;43.74
22257;BME280;11297;42.686;23.374;2022-08-06T06:13:57;94862.34;;;28.13;43.43
22257;BME280;11297;42.686;23.374;2022-08-06T06:16:27;94870.16;;;28.40;42.52
22257;BME280;11297;42.686;23.374;2022-08-06T06:24:13;94868.69;;;28.19;43.50
22257;BME280;11297;42.686;23.374;2022-08-06T06:26:56;94863.66;;;28.41;42.35
22257;BME280;11297;42.686;23.374;2022-08-06T06:29:40;94860.00;;;28.50;41.63
22257;BME280;11297;42.686;23.374;2022-08-06T06:32:17;94864.53;;;28.69;42.37
22257;BME280;11297;42.686;23.374;2022-08-06T06:35:02;94859.78;;;28.77;42.26
22257;BME280;11297;42.686;23.374;2022-08-06T06:46:04;94857.63;;;29.35;42.80
22257;BME280;11297;42.686;23.374;2022-08-06T06:48:38;94850.09;;;29.58;42.56
22257;BME280;11297;42.686;23.374;2022-08-06T06:51:10;94851.34;;;29.98;44.33
22257;BME280;11297;42.686;23.374;2022-08-06T06:53:41;94852.13;;;30.11;41.69
22257;BME280;11297;42.686;23.374;2022-08-06T06:56:08;94854.13;;;30.07;42.81
22257;BME280;11297;42.686;23.374;2022-08-06T06:58:37;94846.28;;;30.00;41.25
22257;BME280;11297;42.686;23.374;2022-08-06T07:01:07;94847.69;;;30.04;41.61
22257;BME280;11297;42.686;23.374;2022-08-06T07:03:36;94847.81;;;30.01;41.13
22257;BME280;11297;42.686;23.374;2022-08-06T07:06:04;94834.59;;;29.94;40.78
22257;BME280;11297;42.686;23.374;2022-08-06T07:08:32;94838.78;;;30.07;40.67
22257;BME280;11297;42.686;23.374;2022-08-06T07:10:59;94836.91;;;30.33;40.92
22257;BME280;11297;42.686;23.374;2022-08-06T07:13:26;94836.91;;;30.45;40.38
22257;BME280;11297;42.686;23.374;2022-08-06T07:15:53;94833.94;;;30.68;40.73
22257;BME280;11297;42.686;23.374;2022-08-06T07:18:20;94829.41;;;30.65;40.46
22257;BME280;11297;42.686;23.374;2022-08-06T07:20:47;94828.22;;;30.66;40.00
22257;BME280;11297;42.686;23.374;2022-08-06T07:23:14;94831.44;;;30.73;40.24
22257;BME280;11297;42.686;23.374;2022-08-06T07:25:42;94830.16;;;30.78;39.63
22257;BME280;11297;42.686;23.374;2022-08-06T07:28:10;94824.69;;;30.69;40.38
22257;BME280;11297;42.686;23.374;2022-08-06T07:30:36;94826.41;;;30.75;39.18
22257;BME280;11297;42.686;23.374;2022-08-06T07:33:03;94824.69;;;30.81;38.70
22257;BME280;11297;42.686;23.374;2022-08-06T07:35:29;94815.25;;;30.89;40.02
22257;BME280;11297;42.686;23.374;2022-08-06T07:38:02;94794.28;;;30.96;39.24
22257;BME280;11297;42.686;23.374;2022-08-06T07:40:41;94813.81;;;30.97;39.12
22257;BME280;11297;42.686;23.374;2022-08-06T07:43:13;94815.72;;;31.09;39.52
22257;BME280;11297;42.686;23.374;2022-08-06T07:45:40;94806.69;;;31.15;38.76
22257;BME280;11297;42.686;23.374;2022-08-06T07:48:10;94808.47;;;31.31;39.67
22257;BME280;11297;42.686;23.374;2022-08-06T07:50:36;94800.63;;;31.24;38.21
22257;BME280;11297;42.686;23.374;2022-08-06T07:53:02;94813.41;;;31.32;39.31
22257;BME280;11297;42.686;23.374;2022-08-06T07:55:29;94802.97;;;31.46;37.46
22257;BME280;11297;42.686;23.374;2022-08-06T07:57:56;94809.84;;;31.35;40.54
22257;BME280;11297;42.686;23.374;2022-08-06T08:00:22;94799.84;;;31.48;38.57
22257;BME280;11297;42.686;23.374;2022-08-06T08:02:50;94806.31;;;31.59;37.15
22257;BME280;11297;42.686;23.374;2022-08-06T08:05:37;94802.09;;;31.71;36.99
22257;BME280;11297;42.686;23.374;2022-08-06T08:08:23;94800.47;;;31.94;36.31
22257;BME280;11297;42.686;23.374;2022-08-06T08:10:51;94794.56;;;32.08;36.60
22257;BME280;11297;42.686;23.374;2022-08-06T08:13:18;94798.38;;;32.20;36.61
22257;BME280;11297;42.686;23.374;2022-08-06T08:15:46;94800.41;;;32.37;36.80
22257;BME280;11297;42.686;23.374;2022-08-06T08:18:12;94800.78;;;32.57;35.71
22257;BME280;11297;42.686;23.374;2022-08-06T08:20:39;94803.25;;;32.73;34.52
22257;BME280;11297;42.686;23.374;2022-08-06T08:23:09;94792.94;;;32.80;35.90
22257;BME280;11297;42.686;23.374;2022-08-06T08:25:35;94801.56;;;32.66;34.72
22257;BME280;11297;42.686;23.374;2022-08-06T08:28:00;94788.28;;;32.72;36.01
22257;BME280;11297;42.686;23.374;2022-08-06T08:30:25;94794.75;;;32.83;34.19
22257;BME280;11297;42.686;23.374;2022-08-06T08:32:51;94800.16;;;32.92;34.61
22257;BME280;11297;42.686;23.374;2022-08-06T08:35:17;94798.41;;;32.98;35.15
22257;BME280;11297;42.686;23.374;2022-08-06T08:37:42;94800.66;;;33.08;34.89
22257;BME280;11297;42.686;23.374;2022-08-06T08:40:08;94800.81;;;33.23;35.64
22257;BME280;11297;42.686;23.374;2022-08-06T08:42:57;94788.09;;;33.23;33.98
22257;BME280;11297;42.686;23.374;2022-08-06T08:45:24;94795.44;;;33.58;35.02
22257;BME280;11297;42.686;23.374;2022-08-06T08:47:52;94793.47;;;33.85;34.34
22257;BME280;11297;42.686;23.374;2022-08-06T08:50:20;94788.84;;;33.95;32.45
22257;BME280;11297;42.686;23.374;2022-08-06T08:52:48;94789.41;;;34.08;32.39
22257;BME280;11297;42.686;23.374;2022-08-06T08:55:15;94785.00;;;34.19;31.68
22257;BME280;11297;42.686;23.374;2022-08-06T08:57:42;94786.63;;;34.43;31.04
22257;BME280;11297;42.686;23.374;2022-08-06T09:00:08;94783.63;;;34.33;33.01
22257;BME280;11297;42.686;23.374;2022-08-06T09:02:36;94795.31;;;34.30;32.08
22257;BME280;11297;42.686;23.374;2022-08-06T09:05:02;94779.22;;;34.53;30.85
22257;BME280;11297;42.686;23.374;2022-08-06T09:07:28;94780.28;;;34.79;30.76
22257;BME280;11297;42.686;23.374;2022-08-06T09:09:54;94774.13;;;34.78;30.10
22257;BME280;11297;42.686;23.374;2022-08-06T09:12:20;94779.31;;;34.67;30.88
22257;BME280;11297;42.686;23.374;2022-08-06T09:14:46;94779.03;;;34.56;31.95
22257;BME280;11297;42.686;23.374;2022-08-06T09:17:11;94772.81;;;34.74;30.06
22257;BME280;11297;42.686;23.374;2022-08-06T09:19:37;94785.97;;;34.89;31.86
22257;BME280;11297;42.686;23.374;2022-08-06T09:22:03;94769.09;;;35.18;29.83
22257;BME280;11297;42.686;23.374;2022-08-06T09:24:29;94773.88;;;35.23;29.74
22257;BME280;11297;42.686;23.374;2022-08-06T09:27:12;94761.97;;;35.06;29.77
22257;BME280;11297;42.686;23.374;2022-08-06T09:30:07;94766.53;;;35.00;28.65
22257;BME280;11297;42.686;23.374;2022-08-06T09:32:44;94765.09;;;34.90;28.97
22257;BME280;11297;42.686;23.374;2022-08-06T09:35:17;94755.34;;;34.83;29.25
22257;BME280;11297;42.686;23.374;2022-08-06T09:37:43;94760.56;;;34.87;30.66
22257;BME280;11297;42.686;23.374;2022-08-06T09:40:14;94756.22;;;35.13;28.72
22257;BME280;11297;42.686;23.374;2022-08-06T09:42:43;94756.13;;;34.75;29.04
22257;BME280;11297;42.686;23.374;2022-08-06T09:45:10;94759.31;;;34.74;29.02
22257;BME280;11297;42.686;23.374;2022-08-06T09:47:37;94763.03;;;34.76;28.97
22257;BME280;11297;42.686;23.374;2022-08-06T09:50:06;94762.28;;;34.76;29.05
22257;BME280;11297;42.686;23.374;2022-08-06T09:52:32;94762.31;;;34.99;29.50
22257;BME280;11297;42.686;23.374;2022-08-06T09:54:58;94752.94;;;34.53;28.87
22257;BME280;11297;42.686;23.374;2022-08-06T09:57:24;94766.16;;;34.83;28.59
22257;BME280;11297;42.686;23.374;2022-08-06T09:59:50;94754.34;;;35.04;28.57
22257;BME280;11297;42.686;23.374;2022-08-06T10:02:20;94749.94;;;35.07;29.20
22257;BME280;11297;42.686;23.374;2022-08-06T10:04:47;94746.50;;;35.06;28.29
22257;BME280;11297;42.686;23.374;2022-08-06T10:07:13;94740.75;;;35.13;29.31
22257;BME280;11297;42.686;23.374;2022-08-06T10:09:51;94737.59;;;35.29;28.64
22257;BME280;11297;42.686;23.374;2022-08-06T10:12:19;94739.53;;;35.14;28.02
22257;BME280;11297;42.686;23.374;2022-08-06T10:14:45;94737.34;;;34.57;28.79
22257;BME280;11297;42.686;23.374;2022-08-06T10:17:12;94739.41;;;34.62;29.64
22257;BME280;11297;42.686;23.374;2022-08-06T10:19:39;94740.22;;;34.77;30.04
22257;BME280;11297;42.686;23.374;2022-08-06T10:22:06;94731.16;;;34.66;29.31
22257;BME280;11297;42.686;23.374;2022-08-06T10:24:36;94726.09;;;34.82;28.93
22257;BME280;11297;42.686;23.374;2022-08-06T10:27:07;94731.03;;;35.07;28.74
22257;BME280;11297;42.686;23.374;2022-08-06T10:29:40;94722.31;;;35.26;27.79
22257;BME280;11297;42.686;23.374;2022-08-06T10:32:09;94729.31;;;34.95;28.60
22257;BME280;11297;42.686;23.374;2022-08-06T10:34:38;94726.81;;;34.59;28.66
22257;BME280;11297;42.686;23.374;2022-08-06T10:37:06;94720.16;;;34.69;29.24
22257;BME280;11297;42.686;23.374;2022-08-06T10:39:36;94725.38;;;34.49;29.39
22257;BME280;11297;42.686;23.374;2022-08-06T10:42:05;94720.47;;;34.39;29.23
22257;BME280;11297;42.686;23.374;2022-08-06T10:44:33;94720.00;;;34.49;29.97
22257;BME280;11297;42.686;23.374;2022-08-06T10:47:00;94720.97;;;34.29;29.27
22257;BME280;11297;42.686;23.374;2022-08-06T10:49:26;94715.22;;;34.03;30.69
22257;BME280;11297;42.686;23.374;2022-08-06T10:51:53;94714.88;;;33.60;29.52
22257;BME280;11297;42.686;23.374;2022-08-06T10:54:19;94714.13;;;33.33;30.42
22257;BME280;11297;42.686;23.374;2022-08-06T10:56:46;94708.44;;;33.04;31.01
22257;BME280;11297;42.686;23.374;2022-08-06T10:59:13;94716.97;;;32.94;31.59
22257;BME280;11297;42.686;23.374;2022-08-06T11:02:04;94709.19;;;33.05;31.50
22257;BME280;11297;42.686;23.374;2022-08-06T11:10:32;94707.06;;;33.62;32.19
22257;BME280;11297;42.686;23.374;2022-08-06T11:13:09;94701.34;;;33.78;30.53
22257;BME280;11297;42.686;23.374;2022-08-06T11:15:37;94706.13;;;33.92;30.59
22257;BME280;11297;42.686;23.374;2022-08-06T11:18:07;94703.25;;;33.86;31.05
22257;BME280;11297;42.686;23.374;2022-08-06T11:25:38;94688.84;;;33.89;30.77
22257;BME280;11297;42.686;23.374;2022-08-06T11:28:04;94688.75;;;33.93;29.56
22257;BME280;11297;42.686;23.374;2022-08-06T11:33:06;94700.06;;;33.47;31.61
22257;BME280;11297;42.686;23.374;2022-08-06T11:38:01;94697.38;;;33.38;32.20
22257;BME280;11297;42.686;23.374;2022-08-06T11:40:28;94701.97;;;33.37;30.96
22257;BME280;11297;42.686;23.374;2022-08-06T11:42:53;94703.34;;;33.33;30.18
22257;BME280;11297;42.686;23.374;2022-08-06T11:45:19;94696.31;;;33.18;30.38
22257;BME280;11297;42.686;23.374;2022-08-06T11:48:06;94698.28;;;33.08;30.15
22257;BME280;11297;42.686;23.374;2022-08-06T11:50:32;94700.81;;;33.12;31.71
22257;BME280;11297;42.686;23.374;2022-08-06T11:52:58;94696.03;;;33.07;29.97
22257;BME280;11297;42.686;23.374;2022-08-06T11:55:24;94700.22;;;32.99;32.29
22257;BME280;11297;42.686;23.374;2022-08-06T12:01:00;94672.69;;;33.13;31.40
22257;BME280;11297;42.686;23.374;2022-08-06T12:03:38;94677.47;;;33.27;30.79
22257;BME280;11297;42.686;23.374;2022-08-06T12:06:25;94688.69;;;33.34;31.39
22257;BME280;11297;42.686;23.374;2022-08-06T12:09:10;94684.06;;;33.08;31.91
22257;BME280;11297;42.686;23.374;2022-08-06T12:11:37;94687.81;;;33.01;32.11
22257;BME280;11297;42.686;23.374;2022-08-06T12:14:04;94683.31;;;33.07;30.89
22257;BME280;11297;42.686;23.374;2022-08-06T12:16:33;94680.47;;;33.02;30.57
22257;BME280;11297;42.686;23.374;2022-08-06T12:19:00;94683.72;;;32.88;30.41
22257;BME280;11297;42.686;23.374;2022-08-06T12:21:26;94676.53;;;32.67;30.82
22257;BME280;11297;42.686;23.374;2022-08-06T12:23:53;94683.28;;;32.81;30.46
22257;BME280;11297;42.686;23.374;2022-08-06T12:26:20;94688.50;;;32.84;31.91
22257;BME280;11297;42.686;23.374;2022-08-06T12:28:46;94670.56;;;32.72;29.63
22257;BME280;11297;42.686;23.374;2022-08-06T12:31:12;94661.28;;;32.73;30.28
22257;BME280;11297;42.686;23.374;2022-08-06T12:33:42;94665.34;;;32.95;31.65
22257;BME280;11297;42.686;23.374;2022-08-06T12:36:08;94666.69;;;33.18;29.15
22257;BME280;11297;42.686;23.374;2022-08-06T12:38:33;94660.41;;;33.21;29.76
22257;BME280;11297;42.686;23.374;2022-08-06T12:41:07;94663.50;;;33.37;28.87
22257;BME280;11297;42.686;23.374;2022-08-06T12:43:35;94659.31;;;33.45;29.38
22257;BME280;11297;42.686;23.374;2022-08-06T12:46:03;94663.53;;;33.28;29.95
22257;BME280;11297;42.686;23.374;2022-08-06T12:48:34;94659.53;;;33.06;28.17
22257;BME280;11297;42.686;23.374;2022-08-06T12:51:11;94666.38;;;32.80;29.37
22257;BME280;11297;42.686;23.374;2022-08-06T12:56:17;94658.75;;;32.79;30.20
22257;BME280;11297;42.686;23.374;2022-08-06T12:58:43;94650.38;;;32.85;29.18
22257;BME280;11297;42.686;23.374;2022-08-06T13:01:22;94652.75;;;32.75;29.71
22257;BME280;11297;42.686;23.374;2022-08-06T13:03:50;94652.59;;;32.69;30.16
22257;BME280;11297;42.686;23.374;2022-08-06T13:06:19;94647.38;;;32.66;28.34
22257;BME280;11297;42.686;23.374;2022-08-06T13:08:48;94646.31;;;32.81;28.98
22257;BME280;11297;42.686;23.374;2022-08-06T13:11:14;94642.88;;;32.72;29.32
22257;BME280;11297;42.686;23.374;2022-08-06T13:13:51;94647.38;;;32.84;28.57
22257;BME280;11297;42.686;23.374;2022-08-06T13:16:17;94653.38;;;32.79;29.60
22257;BME280;11297;42.686;23.374;2022-08-06T13:19:03;94647.66;;;32.77;28.72
22257;BME280;11297;42.686;23.374;2022-08-06T13:21:30;94642.59;;;32.79;28.85
22257;BME280;11297;42.686;23.374;2022-08-06T13:23:56;94651.13;;;32.86;28.77
22257;BME280;11297;42.686;23.374;2022-08-06T13:26:24;94642.47;;;33.00;28.44
22257;BME280;11297;42.686;23.374;2022-08-06T13:29:10;94638.41;;;33.04;28.15
22257;BME280;11297;42.686;23.374;2022-08-06T13:31:37;94631.09;;;32.96;28.80
22257;BME280;11297;42.686;23.374;2022-08-06T13:34:08;94636.44;;;32.87;29.15
22257;BME280;11297;42.686;23.374;2022-08-06T13:36:38;94629.44;;;32.98;29.14
22257;BME280;11297;42.686;23.374;2022-08-06T13:39:28;94646.06;;;32.97;28.95
22257;BME280;11297;42.686;23.374;2022-08-06T13:42:09;94627.19;;;32.97;28.15
22257;BME280;11297;42.686;23.374;2022-08-06T13:44:40;94640.94;;;32.81;28.17
22257;BME280;11297;42.686;23.374;2022-08-06T13:47:07;94637.06;;;32.64;28.92
22257;BME280;11297;42.686;23.374;2022-08-06T13:49:33;94638.84;;;32.85;28.65